sensor_id;sensor_type;location;lat;lon;timestamp;P1;durP1;ratioP1;P2;durP2;ratioP2
25023;SDS011;13033;50.936;5.334;2023-06-14T00:01:35;9.23;;;6.80;;
25023;SDS011;13033;50.936;5.334;2023-06-14T00:04:00;8.07;;;6.85;;
25023;SDS011;13033;50.936;5.334;2023-06-14T00:06:28;10.77;;;6.82;;
25023;SDS011;13033;50.936;5.334;2023-06-14T00:08:54;7.85;;;7.00;;
25023;SDS011;13033;50.936;5.334;2023-06-14T00:11:19;8.93;;;6.38;;
25023;SDS011;13033;50.936;5.334;2023-06-14T00:13:45;13.40;;;6.45;;
25023;SDS011;13033;50.936;5.334;2023-06-14T00:16:11;9.00;;;6.50;;
25023;SDS011;13033;50.936;5.334;2023-06-14T00:18:37;9.15;;;6.78;;
25023;SDS011;13033;50.936;5.334;2023-06-14T00:21:03;9.45;;;7.05;;
25023;SDS011;13033;50.936;5.334;2023-06-14T00:23:29;12.85;;;6.57;;
25023;SDS011;13033;50.936;5.334;2023-06-14T00:25:55;8.52;;;6.88;;
25023;SDS011;13033;50.936;5.334;2023-06-14T00:28:21;10.80;;;7.13;;
25023;SDS011;13033;50.936;5.334;2023-06-14T00:30:47;10.43;;;7.07;;
25023;SDS011;13033;50.936;5.334;2023-06-14T00:33:13;12.68;;;7.38;;
25023;SDS011;13033;50.936;5.334;2023-06-14T00:35:39;10.85;;;7.40;;
25023;SDS011;13033;50.936;5.334;2023-06-14T00:38:05;7.60;;;6.80;;
25023;SDS011;13033;50.936;5.334;2023-06-14T00:40:30;9.30;;;6.95;;
25023;SDS011;13033;50.936;5.334;2023-06-14T00:42:56;13.02;;;7.10;;
25023;SDS011;13033;50.936;5.334;2023-06-14T00:45:22;10.73;;;6.90;;
25023;SDS011;13033;50.936;5.334;2023-06-14T00:47:47;8.40;;;6.47;;
25023;SDS011;13033;50.936;5.334;2023-06-14T00:50:17;9.98;;;6.75;;
25023;SDS011;13033;50.936;5.334;2023-06-14T00:52:45;10.60;;;6.90;;
25023;SDS011;13033;50.936;5.334;2023-06-14T00:55:11;9.85;;;7.07;;
25023;SDS011;13033;50.936;5.334;2023-06-14T00:57:37;9.63;;;7.18;;
25023;SDS011;13033;50.936;5.334;2023-06-14T01:00:03;10.23;;;7.20;;
25023;SDS011;13033;50.936;5.334;2023-06-14T01:02:33;10.95;;;7.28;;
25023;SDS011;13033;50.936;5.334;2023-06-14T01:05:01;8.07;;;6.90;;
25023;SDS011;13033;50.936;5.334;2023-06-14T01:13:08;11.82;;;6.60;;
25023;SDS011;13033;50.936;5.334;2023-06-14T01:15:38;8.52;;;6.82;;
25023;SDS011;13033;50.936;5.334;2023-06-14T01:18:06;9.30;;;7.15;;
25023;SDS011;13033;50.936;5.334;2023-06-14T01:20:32;11.85;;;7.28;;
25023;SDS011;13033;50.936;5.334;2023-06-14T01:23:01;9.10;;;6.75;;
25023;SDS011;13033;50.936;5.334;2023-06-14T01:25:27;8.35;;;6.63;;
25023;SDS011;13033;50.936;5.334;2023-06-14T01:27:55;12.48;;;8.10;;
25023;SDS011;13033;50.936;5.334;2023-06-14T01:30:27;9.85;;;7.25;;
25023;SDS011;13033;50.936;5.334;2023-06-14T01:32:54;10.75;;;7.38;;
25023;SDS011;13033;50.936;5.334;2023-06-14T01:35:21;10.23;;;7.57;;
25023;SDS011;13033;50.936;5.334;2023-06-14T01:37:47;8.77;;;7.25;;
25023;SDS011;13033;50.936;5.334;2023-06-14T01:40:14;11.65;;;7.97;;
25023;SDS011;13033;50.936;5.334;2023-06-14T01:42:40;7.70;;;6.90;;
25023;SDS011;13033;50.936;5.334;2023-06-14T01:45:07;11.27;;;7.97;;
25023;SDS011;13033;50.936;5.334;2023-06-14T01:47:35;9.60;;;7.47;;
25023;SDS011;13033;50.936;5.334;2023-06-14T01:50:04;11.35;;;7.57;;
25023;SDS011;13033;50.936;5.334;2023-06-14T01:52:30;11.13;;;8.20;;
25023;SDS011;13033;50.936;5.334;2023-06-14T01:54:56;13.20;;;7.68;;
25023;SDS011;13033;50.936;5.334;2023-06-14T01:57:23;11.48;;;7.63;;
25023;SDS011;13033;50.936;5.334;2023-06-14T01:59:50;14.70;;;8.43;;
25023;SDS011;13033;50.936;5.334;2023-06-14T02:02:16;9.93;;;8.35;;
25023;SDS011;13033;50.936;5.334;2023-06-14T02:04:41;13.20;;;8.10;;
25023;SDS011;13033;50.936;5.334;2023-06-14T02:07:07;11.73;;;7.68;;
25023;SDS011;13033;50.936;5.334;2023-06-14T02:09:33;11.75;;;7.88;;
25023;SDS011;13033;50.936;5.334;2023-06-14T02:12:00;11.75;;;8.35;;
25023;SDS011;13033;50.936;5.334;2023-06-14T02:14:26;14.70;;;7.90;;
25023;SDS011;13033;50.936;5.334;2023-06-14T02:16:52;10.95;;;8.13;;
25023;SDS011;13033;50.936;5.334;2023-06-14T02:19:18;9.95;;;8.07;;
25023;SDS011;13033;50.936;5.334;2023-06-14T02:21:45;14.57;;;8.18;;
25023;SDS011;13033;50.936;5.334;2023-06-14T02:24:11;19.33;;;8.13;;
25023;SDS011;13033;50.936;5.334;2023-06-14T02:26:37;14.48;;;8.70;;
25023;SDS011;13033;50.936;5.334;2023-06-14T02:29:04;12.52;;;8.18;;
25023;SDS011;13033;50.936;5.334;2023-06-14T02:31:31;13.88;;;8.68;;
25023;SDS011;13033;50.936;5.334;2023-06-14T02:33:57;11.30;;;7.88;;
25023;SDS011;13033;50.936;5.334;2023-06-14T02:36:23;12.38;;;7.97;;
25023;SDS011;13033;50.936;5.334;2023-06-14T02:38:49;11.48;;;8.75;;
25023;SDS011;13033;50.936;5.334;2023-06-14T02:41:15;12.60;;;8.90;;
25023;SDS011;13033;50.936;5.334;2023-06-14T02:43:41;9.88;;;8.18;;
25023;SDS011;13033;50.936;5.334;2023-06-14T02:46:06;10.20;;;8.63;;
25023;SDS011;13033;50.936;5.334;2023-06-14T02:48:32;12.20;;;8.30;;
25023;SDS011;13033;50.936;5.334;2023-06-14T02:50:58;13.35;;;8.73;;
25023;SDS011;13033;50.936;5.334;2023-06-14T02:53:23;12.68;;;9.30;;
25023;SDS011;13033;50.936;5.334;2023-06-14T02:55:49;13.27;;;8.77;;
25023;SDS011;13033;50.936;5.334;2023-06-14T02:58:15;16.52;;;9.48;;
25023;SDS011;13033;50.936;5.334;2023-06-14T03:00:41;15.88;;;9.43;;
25023;SDS011;13033;50.936;5.334;2023-06-14T03:03:07;11.18;;;9.05;;
25023;SDS011;13033;50.936;5.334;2023-06-14T03:05:38;13.82;;;9.20;;
25023;SDS011;13033;50.936;5.334;2023-06-14T03:08:12;11.68;;;8.60;;
25023;SDS011;13033;50.936;5.334;2023-06-14T03:10:45;11.80;;;9.30;;
25023;SDS011;13033;50.936;5.334;2023-06-14T03:13:12;21.33;;;9.63;;
25023;SDS011;13033;50.936;5.334;2023-06-14T03:15:38;12.90;;;8.82;;
25023;SDS011;13033;50.936;5.334;2023-06-14T03:18:06;14.32;;;8.90;;
25023;SDS011;13033;50.936;5.334;2023-06-14T03:20:37;12.48;;;8.93;;
25023;SDS011;13033;50.936;5.334;2023-06-14T03:23:03;14.75;;;9.27;;
25023;SDS011;13033;50.936;5.334;2023-06-14T03:25:30;15.20;;;8.68;;
25023;SDS011;13033;50.936;5.334;2023-06-14T03:27:58;15.32;;;9.10;;
25023;SDS011;13033;50.936;5.334;2023-06-14T03:30:23;17.15;;;9.30;;
25023;SDS011;13033;50.936;5.334;2023-06-14T03:32:49;13.77;;;8.45;;
25023;SDS011;13033;50.936;5.334;2023-06-14T03:35:17;12.38;;;9.23;;
25023;SDS011;13033;50.936;5.334;2023-06-14T03:37:44;11.00;;;8.07;;
25023;SDS011;13033;50.936;5.334;2023-06-14T03:40:11;13.35;;;8.85;;
25023;SDS011;13033;50.936;5.334;2023-06-14T03:42:38;14.02;;;9.27;;
25023;SDS011;13033;50.936;5.334;2023-06-14T03:45:04;17.80;;;9.70;;
25023;SDS011;13033;50.936;5.334;2023-06-14T03:47:31;13.57;;;9.48;;
25023;SDS011;13033;50.936;5.334;2023-06-14T03:49:57;12.23;;;9.25;;
25023;SDS011;13033;50.936;5.334;2023-06-14T03:52:22;11.63;;;8.90;;
25023;SDS011;13033;50.936;5.334;2023-06-14T03:54:48;14.60;;;9.27;;
25023;SDS011;13033;50.936;5.334;2023-06-14T03:57:14;12.93;;;9.43;;
25023;SDS011;13033;50.936;5.334;2023-06-14T03:59:40;10.85;;;9.00;;
25023;SDS011;13033;50.936;5.334;2023-06-14T04:02:06;10.85;;;8.40;;
25023;SDS011;13033;50.936;5.334;2023-06-14T04:04:34;12.15;;;8.77;;
25023;SDS011;13033;50.936;5.334;2023-06-14T04:07:00;14.52;;;9.15;;
25023;SDS011;13033;50.936;5.334;2023-06-14T04:09:28;13.88;;;9.52;;
25023;SDS011;13033;50.936;5.334;2023-06-14T04:11:56;14.05;;;9.23;;
25023;SDS011;13033;50.936;5.334;2023-06-14T04:14:21;13.65;;;9.55;;
25023;SDS011;13033;50.936;5.334;2023-06-14T04:16:47;15.50;;;9.10;;
25023;SDS011;13033;50.936;5.334;2023-06-14T04:19:14;12.45;;;9.07;;
25023;SDS011;13033;50.936;5.334;2023-06-14T04:21:41;18.13;;;9.73;;
25023;SDS011;13033;50.936;5.334;2023-06-14T04:24:07;13.65;;;9.18;;
25023;SDS011;13033;50.936;5.334;2023-06-14T04:26:38;13.68;;;10.00;;
25023;SDS011;13033;50.936;5.334;2023-06-14T04:29:10;13.30;;;9.10;;
25023;SDS011;13033;50.936;5.334;2023-06-14T04:31:39;13.35;;;9.25;;
25023;SDS011;13033;50.936;5.334;2023-06-14T04:34:05;14.18;;;9.23;;
25023;SDS011;13033;50.936;5.334;2023-06-14T04:36:33;15.43;;;9.43;;
25023;SDS011;13033;50.936;5.334;2023-06-14T04:39:02;11.63;;;8.73;;
25023;SDS011;13033;50.936;5.334;2023-06-14T04:41:32;12.70;;;9.60;;
25023;SDS011;13033;50.936;5.334;2023-06-14T04:43:58;10.75;;;9.10;;
25023;SDS011;13033;50.936;5.334;2023-06-14T04:46:27;13.25;;;9.25;;
25023;SDS011;13033;50.936;5.334;2023-06-14T04:48:53;16.55;;;8.98;;
25023;SDS011;13033;50.936;5.334;2023-06-14T04:51:20;16.08;;;9.00;;
25023;SDS011;13033;50.936;5.334;2023-06-14T04:53:47;14.85;;;8.80;;
25023;SDS011;13033;50.936;5.334;2023-06-14T04:56:14;14.15;;;9.15;;
25023;SDS011;13033;50.936;5.334;2023-06-14T04:58:40;17.20;;;9.43;;
25023;SDS011;13033;50.936;5.334;2023-06-14T05:01:06;13.85;;;9.73;;
25023;SDS011;13033;50.936;5.334;2023-06-14T05:03:34;14.23;;;9.13;;
25023;SDS011;13033;50.936;5.334;2023-06-14T05:06:00;14.00;;;9.63;;
25023;SDS011;13033;50.936;5.334;2023-06-14T05:08:25;13.13;;;8.82;;
25023;SDS011;13033;50.936;5.334;2023-06-14T05:10:51;18.00;;;11.10;;
25023;SDS011;13033;50.936;5.334;2023-06-14T05:13:18;14.55;;;9.10;;
25023;SDS011;13033;50.936;5.334;2023-06-14T05:15:43;14.93;;;8.90;;
25023;SDS011;13033;50.936;5.334;2023-06-14T05:18:09;13.68;;;8.52;;
25023;SDS011;13033;50.936;5.334;2023-06-14T05:20:35;12.55;;;8.48;;
25023;SDS011;13033;50.936;5.334;2023-06-14T05:23:02;12.43;;;8.85;;
25023;SDS011;13033;50.936;5.334;2023-06-14T05:25:28;12.10;;;8.35;;
25023;SDS011;13033;50.936;5.334;2023-06-14T05:27:54;13.73;;;8.88;;
25023;SDS011;13033;50.936;5.334;2023-06-14T05:30:19;10.38;;;8.48;;
25023;SDS011;13033;50.936;5.334;2023-06-14T05:32:45;18.33;;;8.52;;
25023;SDS011;13033;50.936;5.334;2023-06-14T05:35:11;11.65;;;8.60;;
25023;SDS011;13033;50.936;5.334;2023-06-14T05:37:37;13.45;;;8.40;;
25023;SDS011;13033;50.936;5.334;2023-06-14T05:40:03;16.15;;;8.23;;
25023;SDS011;13033;50.936;5.334;2023-06-14T05:42:30;15.00;;;8.20;;
25023;SDS011;13033;50.936;5.334;2023-06-14T05:44:56;12.73;;;8.45;;
25023;SDS011;13033;50.936;5.334;2023-06-14T05:47:22;10.25;;;8.43;;
25023;SDS011;13033;50.936;5.334;2023-06-14T05:49:48;12.57;;;8.32;;
25023;SDS011;13033;50.936;5.334;2023-06-14T05:52:13;14.50;;;8.10;;
25023;SDS011;13033;50.936;5.334;2023-06-14T05:54:39;18.90;;;8.07;;
25023;SDS011;13033;50.936;5.334;2023-06-14T05:57:06;11.98;;;7.85;;
25023;SDS011;13033;50.936;5.334;2023-06-14T05:59:32;13.88;;;8.10;;
25023;SDS011;13033;50.936;5.334;2023-06-14T06:01:59;10.38;;;7.68;;
25023;SDS011;13033;50.936;5.334;2023-06-14T06:04:24;9.50;;;8.15;;
25023;SDS011;13033;50.936;5.334;2023-06-14T06:06:50;13.20;;;8.32;;
25023;SDS011;13033;50.936;5.334;2023-06-14T06:09:16;15.68;;;8.38;;
25023;SDS011;13033;50.936;5.334;2023-06-14T06:11:42;16.55;;;7.40;;
25023;SDS011;13033;50.936;5.334;2023-06-14T06:14:07;12.27;;;8.15;;
25023;SDS011;13033;50.936;5.334;2023-06-14T06:16:33;12.98;;;7.97;;
25023;SDS011;13033;50.936;5.334;2023-06-14T06:18:58;9.68;;;7.30;;
25023;SDS011;13033;50.936;5.334;2023-06-14T06:21:24;11.27;;;8.20;;
25023;SDS011;13033;50.936;5.334;2023-06-14T06:23:50;11.48;;;8.15;;
25023;SDS011;13033;50.936;5.334;2023-06-14T06:26:15;15.85;;;7.57;;
25023;SDS011;13033;50.936;5.334;2023-06-14T06:28:41;12.77;;;7.88;;
25023;SDS011;13033;50.936;5.334;2023-06-14T06:31:07;9.52;;;7.60;;
25023;SDS011;13033;50.936;5.334;2023-06-14T06:33:32;11.23;;;8.00;;
25023;SDS011;13033;50.936;5.334;2023-06-14T06:35:58;12.65;;;8.13;;
25023;SDS011;13033;50.936;5.334;2023-06-14T06:38:24;12.00;;;7.70;;
25023;SDS011;13033;50.936;5.334;2023-06-14T06:40:50;12.68;;;7.68;;
25023;SDS011;13033;50.936;5.334;2023-06-14T06:43:15;13.93;;;7.93;;
25023;SDS011;13033;50.936;5.334;2023-06-14T06:45:42;14.07;;;8.15;;
25023;SDS011;13033;50.936;5.334;2023-06-14T06:48:08;13.13;;;8.32;;
25023;SDS011;13033;50.936;5.334;2023-06-14T06:50:37;13.82;;;8.00;;
25023;SDS011;13033;50.936;5.334;2023-06-14T06:53:03;13.32;;;7.40;;
25023;SDS011;13033;50.936;5.334;2023-06-14T06:55:29;12.95;;;8.18;;
25023;SDS011;13033;50.936;5.334;2023-06-14T06:57:55;12.88;;;8.25;;
25023;SDS011;13033;50.936;5.334;2023-06-14T07:00:21;13.40;;;7.60;;
25023;SDS011;13033;50.936;5.334;2023-06-14T07:02:47;12.13;;;7.75;;
25023;SDS011;13033;50.936;5.334;2023-06-14T07:05:12;15.40;;;7.72;;
25023;SDS011;13033;50.936;5.334;2023-06-14T07:07:38;13.93;;;7.57;;
25023;SDS011;13033;50.936;5.334;2023-06-14T07:10:04;12.70;;;7.53;;
25023;SDS011;13033;50.936;5.334;2023-06-14T07:12:30;10.15;;;7.40;;
25023;SDS011;13033;50.936;5.334;2023-06-14T07:14:58;14.13;;;7.22;;
25023;SDS011;13033;50.936;5.334;2023-06-14T07:17:25;16.23;;;7.25;;
25023;SDS011;13033;50.936;5.334;2023-06-14T07:19:51;12.88;;;7.35;;
25023;SDS011;13033;50.936;5.334;2023-06-14T07:22:19;13.18;;;7.40;;
25023;SDS011;13033;50.936;5.334;2023-06-14T07:24:51;10.85;;;7.28;;
25023;SDS011;13033;50.936;5.334;2023-06-14T07:27:17;15.85;;;6.80;;
25023;SDS011;13033;50.936;5.334;2023-06-14T07:29:42;13.32;;;6.88;;
25023;SDS011;13033;50.936;5.334;2023-06-14T07:32:08;11.13;;;7.00;;
25023;SDS011;13033;50.936;5.334;2023-06-14T07:34:39;18.73;;;6.75;;
25023;SDS011;13033;50.936;5.334;2023-06-14T07:37:04;15.43;;;7.03;;
25023;SDS011;13033;50.936;5.334;2023-06-14T07:39:30;12.32;;;6.78;;
25023;SDS011;13033;50.936;5.334;2023-06-14T07:41:56;13.75;;;6.60;;
25023;SDS011;13033;50.936;5.334;2023-06-14T07:44:21;10.15;;;6.60;;
25023;SDS011;13033;50.936;5.334;2023-06-14T07:46:47;13.13;;;7.10;;
25023;SDS011;13033;50.936;5.334;2023-06-14T07:49:14;12.35;;;6.78;;
25023;SDS011;13033;50.936;5.334;2023-06-14T07:51:40;13.20;;;6.82;;
25023;SDS011;13033;50.936;5.334;2023-06-14T07:54:06;11.77;;;7.28;;
25023;SDS011;13033;50.936;5.334;2023-06-14T07:56:33;13.98;;;7.45;;
25023;SDS011;13033;50.936;5.334;2023-06-14T07:58:59;16.90;;;7.00;;
25023;SDS011;13033;50.936;5.334;2023-06-14T08:01:25;13.65;;;6.47;;
25023;SDS011;13033;50.936;5.334;2023-06-14T08:03:52;13.55;;;7.55;;
25023;SDS011;13033;50.936;5.334;2023-06-14T08:06:18;10.50;;;6.93;;
25023;SDS011;13033;50.936;5.334;2023-06-14T08:08:44;9.00;;;6.82;;
25023;SDS011;13033;50.936;5.334;2023-06-14T08:11:09;11.70;;;6.57;;
25023;SDS011;13033;50.936;5.334;2023-06-14T08:13:35;14.65;;;7.25;;
25023;SDS011;13033;50.936;5.334;2023-06-14T08:16:01;22.88;;;7.40;;
25023;SDS011;13033;50.936;5.334;2023-06-14T08:18:26;12.52;;;6.90;;
25023;SDS011;13033;50.936;5.334;2023-06-14T08:20:52;11.88;;;6.57;;
25023;SDS011;13033;50.936;5.334;2023-06-14T08:23:19;14.00;;;6.93;;
25023;SDS011;13033;50.936;5.334;2023-06-14T08:25:46;15.10;;;6.35;;
25023;SDS011;13033;50.936;5.334;2023-06-14T08:28:12;15.30;;;6.35;;
25023;SDS011;13033;50.936;5.334;2023-06-14T08:30:37;13.98;;;6.13;;
25023;SDS011;13033;50.936;5.334;2023-06-14T08:33:03;12.27;;;6.10;;
25023;SDS011;13033;50.936;5.334;2023-06-14T08:35:28;10.82;;;5.88;;
25023;SDS011;13033;50.936;5.334;2023-06-14T08:37:54;15.65;;;6.60;;
25023;SDS011;13033;50.936;5.334;2023-06-14T08:40:21;7.95;;;5.70;;
25023;SDS011;13033;50.936;5.334;2023-06-14T08:42:50;12.27;;;5.93;;
25023;SDS011;13033;50.936;5.334;2023-06-14T08:45:17;13.82;;;6.03;;
25023;SDS011;13033;50.936;5.334;2023-06-14T08:47:44;6.65;;;5.88;;
25023;SDS011;13033;50.936;5.334;2023-06-14T08:50:10;16.17;;;5.60;;
25023;SDS011;13033;50.936;5.334;2023-06-14T08:52:37;8.70;;;5.78;;
25023;SDS011;13033;50.936;5.334;2023-06-14T08:55:06;11.88;;;5.50;;
25023;SDS011;13033;50.936;5.334;2023-06-14T08:57:33;10.32;;;6.05;;
25023;SDS011;13033;50.936;5.334;2023-06-14T09:00:03;14.25;;;5.82;;
25023;SDS011;13033;50.936;5.334;2023-06-14T09:02:38;13.45;;;5.57;;
25023;SDS011;13033;50.936;5.334;2023-06-14T09:05:09;11.48;;;5.00;;
25023;SDS011;13033;50.936;5.334;2023-06-14T09:07:43;7.30;;;5.30;;
25023;SDS011;13033;50.936;5.334;2023-06-14T09:10:10;10.23;;;5.60;;
25023;SDS011;13033;50.936;5.334;2023-06-14T09:12:37;11.55;;;4.88;;
25023;SDS011;13033;50.936;5.334;2023-06-14T09:15:03;12.70;;;5.32;;
25023;SDS011;13033;50.936;5.334;2023-06-14T09:17:38;9.57;;;4.60;;
25023;SDS011;13033;50.936;5.334;2023-06-14T09:20:07;7.20;;;4.50;;
25023;SDS011;13033;50.936;5.334;2023-06-14T09:22:35;11.40;;;4.80;;
25023;SDS011;13033;50.936;5.334;2023-06-14T09:25:02;6.97;;;4.40;;
25023;SDS011;13033;50.936;5.334;2023-06-14T09:27:28;13.77;;;4.78;;
25023;SDS011;13033;50.936;5.334;2023-06-14T09:29:55;11.60;;;5.15;;
25023;SDS011;13033;50.936;5.334;2023-06-14T09:32:24;15.77;;;4.90;;
25023;SDS011;13033;50.936;5.334;2023-06-14T09:34:50;11.93;;;5.00;;
25023;SDS011;13033;50.936;5.334;2023-06-14T09:37:28;13.88;;;4.63;;
25023;SDS011;13033;50.936;5.334;2023-06-14T09:39:56;5.43;;;4.60;;
25023;SDS011;13033;50.936;5.334;2023-06-14T09:42:22;11.98;;;4.65;;
25023;SDS011;13033;50.936;5.334;2023-06-14T09:44:51;13.60;;;4.85;;
25023;SDS011;13033;50.936;5.334;2023-06-14T09:47:17;9.00;;;4.30;;
25023;SDS011;13033;50.936;5.334;2023-06-14T09:49:43;5.22;;;4.00;;
25023;SDS011;13033;50.936;5.334;2023-06-14T09:52:10;7.88;;;4.00;;
25023;SDS011;13033;50.936;5.334;2023-06-14T09:54:41;9.52;;;4.13;;
25023;SDS011;13033;50.936;5.334;2023-06-14T09:57:08;7.15;;;3.60;;
25023;SDS011;13033;50.936;5.334;2023-06-14T09:59:45;8.82;;;3.83;;
25023;SDS011;13033;50.936;5.334;2023-06-14T10:04:39;14.35;;;4.05;;
25023;SDS011;13033;50.936;5.334;2023-06-14T10:07:12;10.27;;;3.60;;
25023;SDS011;13033;50.936;5.334;2023-06-14T10:09:43;8.00;;;4.03;;
25023;SDS011;13033;50.936;5.334;2023-06-14T10:12:14;8.05;;;4.32;;
25023;SDS011;13033;50.936;5.334;2023-06-14T10:14:45;7.85;;;3.90;;
25023;SDS011;13033;50.936;5.334;2023-06-14T10:17:35;9.05;;;3.83;;
25023;SDS011;13033;50.936;5.334;2023-06-14T10:20:10;10.88;;;3.65;;
25023;SDS011;13033;50.936;5.334;2023-06-14T10:23:07;13.07;;;3.90;;
25023;SDS011;13033;50.936;5.334;2023-06-14T10:25:49;11.18;;;3.70;;
25023;SDS011;13033;50.936;5.334;2023-06-14T10:28:19;9.45;;;3.80;;
25023;SDS011;13033;50.936;5.334;2023-06-14T10:31:11;5.35;;;3.25;;
25023;SDS011;13033;50.936;5.334;2023-06-14T10:33:39;8.18;;;3.90;;
25023;SDS011;13033;50.936;5.334;2023-06-14T10:36:24;7.88;;;3.58;;
25023;SDS011;13033;50.936;5.334;2023-06-14T10:39:15;11.40;;;3.78;;
25023;SDS011;13033;50.936;5.334;2023-06-14T10:41:51;6.47;;;3.70;;
25023;SDS011;13033;50.936;5.334;2023-06-14T10:46:47;5.32;;;3.60;;
25023;SDS011;13033;50.936;5.334;2023-06-14T10:49:20;5.35;;;3.55;;
25023;SDS011;13033;50.936;5.334;2023-06-14T10:52:14;9.82;;;4.00;;
25023;SDS011;13033;50.936;5.334;2023-06-14T10:57:30;7.53;;;4.13;;
25023;SDS011;13033;50.936;5.334;2023-06-14T11:00:00;9.13;;;4.15;;
25023;SDS011;13033;50.936;5.334;2023-06-14T11:05:54;8.52;;;3.80;;
25023;SDS011;13033;50.936;5.334;2023-06-14T11:09:05;7.72;;;3.08;;
25023;SDS011;13033;50.936;5.334;2023-06-14T11:11:38;5.75;;;2.95;;
25023;SDS011;13033;50.936;5.334;2023-06-14T11:14:06;7.03;;;3.22;;
25023;SDS011;13033;50.936;5.334;2023-06-14T11:16:32;5.20;;;2.67;;
25023;SDS011;13033;50.936;5.334;2023-06-14T11:18:59;3.42;;;2.60;;
25023;SDS011;13033;50.936;5.334;2023-06-14T11:21:28;7.68;;;2.60;;
25023;SDS011;13033;50.936;5.334;2023-06-14T11:23:56;5.93;;;2.40;;
25023;SDS011;13033;50.936;5.334;2023-06-14T11:26:25;4.00;;;2.30;;
25023;SDS011;13033;50.936;5.334;2023-06-14T11:28:56;4.22;;;2.78;;
25023;SDS011;13033;50.936;5.334;2023-06-14T11:31:23;8.90;;;2.42;;
25023;SDS011;13033;50.936;5.334;2023-06-14T11:33:49;4.43;;;1.92;;
25023;SDS011;13033;50.936;5.334;2023-06-14T11:36:15;7.60;;;2.20;;
25023;SDS011;13033;50.936;5.334;2023-06-14T11:38:41;3.95;;;2.20;;
25023;SDS011;13033;50.936;5.334;2023-06-14T11:41:07;3.38;;;1.80;;
25023;SDS011;13033;50.936;5.334;2023-06-14T11:43:33;4.88;;;1.98;;
25023;SDS011;13033;50.936;5.334;2023-06-14T11:46:00;6.07;;;1.95;;
25023;SDS011;13033;50.936;5.334;2023-06-14T11:48:40;3.92;;;2.08;;
25023;SDS011;13033;50.936;5.334;2023-06-14T11:53:34;3.03;;;1.80;;
25023;SDS011;13033;50.936;5.334;2023-06-14T11:56:00;4.63;;;2.00;;
25023;SDS011;13033;50.936;5.334;2023-06-14T11:58:26;10.30;;;2.28;;
25023;SDS011;13033;50.936;5.334;2023-06-14T12:00:54;2.97;;;1.90;;
25023;SDS011;13033;50.936;5.334;2023-06-14T12:03:23;5.53;;;2.08;;
25023;SDS011;13033;50.936;5.334;2023-06-14T12:05:50;4.28;;;1.77;;
25023;SDS011;13033;50.936;5.334;2023-06-14T12:08:31;8.27;;;3.13;;
25023;SDS011;13033;50.936;5.334;2023-06-14T12:11:12;7.95;;;2.70;;
25023;SDS011;13033;50.936;5.334;2023-06-14T12:13:38;3.17;;;2.10;;
25023;SDS011;13033;50.936;5.334;2023-06-14T12:16:08;3.08;;;1.92;;
25023;SDS011;13033;50.936;5.334;2023-06-14T12:18:37;5.90;;;2.38;;
25023;SDS011;13033;50.936;5.334;2023-06-14T12:21:05;5.05;;;1.75;;
25023;SDS011;13033;50.936;5.334;2023-06-14T12:23:47;4.13;;;2.10;;
25023;SDS011;13033;50.936;5.334;2023-06-14T12:26:14;5.20;;;2.13;;
25023;SDS011;13033;50.936;5.334;2023-06-14T12:28:44;4.65;;;2.30;;
25023;SDS011;13033;50.936;5.334;2023-06-14T12:31:11;5.13;;;2.40;;
25023;SDS011;13033;50.936;5.334;2023-06-14T12:33:39;5.93;;;2.08;;
25023;SDS011;13033;50.936;5.334;2023-06-14T12:36:09;3.90;;;2.05;;
25023;SDS011;13033;50.936;5.334;2023-06-14T12:38:35;4.32;;;2.33;;
25023;SDS011;13033;50.936;5.334;2023-06-14T12:41:02;8.82;;;2.42;;
25023;SDS011;13033;50.936;5.334;2023-06-14T12:43:28;5.55;;;2.38;;
25023;SDS011;13033;50.936;5.334;2023-06-14T12:45:53;6.53;;;2.63;;
25023;SDS011;13033;50.936;5.334;2023-06-14T12:48:19;2.35;;;2.13;;
25023;SDS011;13033;50.936;5.334;2023-06-14T12:50:45;8.07;;;2.47;;
25023;SDS011;13033;50.936;5.334;2023-06-14T12:53:11;7.07;;;2.72;;
25023;SDS011;13033;50.936;5.334;2023-06-14T12:55:37;4.05;;;2.47;;
25023;SDS011;13033;50.936;5.334;2023-06-14T12:58:03;6.10;;;2.30;;
25023;SDS011;13033;50.936;5.334;2023-06-14T13:00:29;6.45;;;2.40;;
25023;SDS011;13033;50.936;5.334;2023-06-14T13:02:55;8.55;;;2.28;;
25023;SDS011;13033;50.936;5.334;2023-06-14T13:05:22;4.38;;;2.25;;
25023;SDS011;13033;50.936;5.334;2023-06-14T13:07:48;8.82;;;2.45;;
25023;SDS011;13033;50.936;5.334;2023-06-14T13:10:13;3.35;;;2.10;;
25023;SDS011;13033;50.936;5.334;2023-06-14T13:12:39;3.95;;;2.22;;
25023;SDS011;13033;50.936;5.334;2023-06-14T13:15:05;6.68;;;2.45;;
25023;SDS011;13033;50.936;5.334;2023-06-14T13:17:32;8.23;;;2.40;;
25023;SDS011;13033;50.936;5.334;2023-06-14T13:20:03;5.75;;;2.10;;
25023;SDS011;13033;50.936;5.334;2023-06-14T13:22:33;6.45;;;2.20;;
25023;SDS011;13033;50.936;5.334;2023-06-14T13:25:02;3.92;;;2.33;;
25023;SDS011;13033;50.936;5.334;2023-06-14T13:27:28;5.05;;;2.22;;
25023;SDS011;13033;50.936;5.334;2023-06-14T13:29:54;4.72;;;2.40;;
25023;SDS011;13033;50.936;5.334;2023-06-14T13:32:23;3.63;;;2.33;;
25023;SDS011;13033;50.936;5.334;2023-06-14T13:34:49;4.10;;;2.38;;
25023;SDS011;13033;50.936;5.334;2023-06-14T13:37:14;3.88;;;2.13;;
25023;SDS011;13033;50.936;5.334;2023-06-14T13:39:41;3.95;;;2.40;;
25023;SDS011;13033;50.936;5.334;2023-06-14T13:42:06;5.38;;;2.10;;
25023;SDS011;13033;50.936;5.334;2023-06-14T13:44:32;4.30;;;2.35;;
25023;SDS011;13033;50.936;5.334;2023-06-14T13:46:58;3.75;;;2.25;;
25023;SDS011;13033;50.936;5.334;2023-06-14T13:49:23;5.32;;;2.17;;
25023;SDS011;13033;50.936;5.334;2023-06-14T13:51:49;7.00;;;2.15;;
25023;SDS011;13033;50.936;5.334;2023-06-14T13:54:17;7.78;;;2.35;;
25023;SDS011;13033;50.936;5.334;2023-06-14T13:56:46;6.43;;;2.50;;
25023;SDS011;13033;50.936;5.334;2023-06-14T13:59:25;5.68;;;2.38;;
25023;SDS011;13033;50.936;5.334;2023-06-14T14:01:51;5.93;;;2.25;;
25023;SDS011;13033;50.936;5.334;2023-06-14T14:04:16;6.35;;;2.22;;
25023;SDS011;13033;50.936;5.334;2023-06-14T14:06:42;4.32;;;2.40;;
25023;SDS011;13033;50.936;5.334;2023-06-14T14:09:08;6.10;;;2.50;;
25023;SDS011;13033;50.936;5.334;2023-06-14T14:11:34;6.88;;;2.50;;
25023;SDS011;13033;50.936;5.334;2023-06-14T14:13:59;4.85;;;2.30;;
25023;SDS011;13033;50.936;5.334;2023-06-14T14:16:26;6.43;;;2.35;;
25023;SDS011;13033;50.936;5.334;2023-06-14T14:18:52;5.18;;;2.40;;
25023;SDS011;13033;50.936;5.334;2023-06-14T14:21:17;5.90;;;2.70;;
25023;SDS011;13033;50.936;5.334;2023-06-14T14:23:43;4.03;;;2.58;;
25023;SDS011;13033;50.936;5.334;2023-06-14T14:26:10;5.20;;;2.42;;
25023;SDS011;13033;50.936;5.334;2023-06-14T14:28:36;3.22;;;2.22;;
25023;SDS011;13033;50.936;5.334;2023-06-14T14:31:01;8.77;;;2.42;;
25023;SDS011;13033;50.936;5.334;2023-06-14T14:33:27;5.20;;;2.03;;
25023;SDS011;13033;50.936;5.334;2023-06-14T14:35:53;3.85;;;2.40;;
25023;SDS011;13033;50.936;5.334;2023-06-14T14:38:18;4.75;;;2.00;;
25023;SDS011;13033;50.936;5.334;2023-06-14T14:40:44;4.70;;;2.13;;
25023;SDS011;13033;50.936;5.334;2023-06-14T14:43:10;7.50;;;2.33;;
25023;SDS011;13033;50.936;5.334;2023-06-14T14:45:36;4.80;;;2.20;;
25023;SDS011;13033;50.936;5.334;2023-06-14T14:48:02;5.07;;;2.13;;
25023;SDS011;13033;50.936;5.334;2023-06-14T14:50:28;14.45;;;2.70;;
25023;SDS011;13033;50.936;5.334;2023-06-14T14:52:53;6.85;;;2.20;;
25023;SDS011;13033;50.936;5.334;2023-06-14T14:55:19;4.30;;;1.80;;
25023;SDS011;13033;50.936;5.334;2023-06-14T14:57:45;9.07;;;1.95;;
25023;SDS011;13033;50.936;5.334;2023-06-14T15:00:12;3.88;;;2.05;;
25023;SDS011;13033;50.936;5.334;2023-06-14T15:02:38;5.55;;;1.80;;